sensor_id;sensor_type;location;lat;lon;timestamp;P1;durP1;ratioP1;P2;durP2;ratioP2
32399;SDS011;45045;45.440;9.178;2023-05-23T00:01:03;12.25;;;8.30;;
32399;SDS011;45045;45.440;9.178;2023-05-23T00:03:32;13.27;;;7.90;;
32399;SDS011;45045;45.440;9.178;2023-05-23T00:05:59;15.18;;;7.90;;
32399;SDS011;45045;45.440;9.178;2023-05-23T00:08:25;15.40;;;8.30;;
32399;SDS011;45045;45.440;9.178;2023-05-23T00:10:51;11.00;;;8.10;;
32399;SDS011;45045;45.440;9.178;2023-05-23T00:13:17;16.65;;;8.68;;
32399;SDS011;45045;45.440;9.178;2023-05-23T00:15:43;14.07;;;8.27;;
32399;SDS011;45045;45.440;9.178;2023-05-23T00:18:09;13.65;;;8.30;;
32399;SDS011;45045;45.440;9.178;2023-05-23T00:20:36;10.95;;;8.60;;
32399;SDS011;45045;45.440;9.178;2023-05-23T00:23:05;14.18;;;8.68;;
32399;SDS011;45045;45.440;9.178;2023-05-23T00:25:32;13.27;;;8.63;;
32399;SDS011;45045;45.440;9.178;2023-05-23T00:28:00;10.60;;;8.32;;
32399;SDS011;45045;45.440;9.178;2023-05-23T00:30:29;10.20;;;8.15;;
32399;SDS011;45045;45.440;9.178;2023-05-23T00:32:56;12.63;;;9.15;;
32399;SDS011;45045;45.440;9.178;2023-05-23T00:35:22;13.93;;;8.15;;
32399;SDS011;45045;45.440;9.178;2023-05-23T00:37:48;10.77;;;8.55;;
32399;SDS011;45045;45.440;9.178;2023-05-23T00:40:16;12.00;;;8.10;;
32399;SDS011;45045;45.440;9.178;2023-05-23T00:42:42;12.98;;;9.20;;
32399;SDS011;45045;45.440;9.178;2023-05-23T00:45:08;11.07;;;8.20;;
32399;SDS011;45045;45.440;9.178;2023-05-23T00:47:36;12.27;;;8.10;;
32399;SDS011;45045;45.440;9.178;2023-05-23T00:50:04;12.35;;;8.50;;
32399;SDS011;45045;45.440;9.178;2023-05-23T00:52:35;11.98;;;9.30;;
32399;SDS011;45045;45.440;9.178;2023-05-23T00:55:03;14.32;;;9.02;;
32399;SDS011;45045;45.440;9.178;2023-05-23T00:57:29;12.20;;;8.70;;
32399;SDS011;45045;45.440;9.178;2023-05-23T00:59:55;13.77;;;8.48;;
32399;SDS011;45045;45.440;9.178;2023-05-23T01:02:21;11.80;;;9.20;;
32399;SDS011;45045;45.440;9.178;2023-05-23T01:04:48;14.70;;;9.27;;
32399;SDS011;45045;45.440;9.178;2023-05-23T01:07:20;16.63;;;8.75;;
32399;SDS011;45045;45.440;9.178;2023-05-23T01:09:46;13.30;;;9.27;;
32399;SDS011;45045;45.440;9.178;2023-05-23T01:12:16;14.88;;;8.90;;
32399;SDS011;45045;45.440;9.178;2023-05-23T01:20:21;13.15;;;8.65;;
32399;SDS011;45045;45.440;9.178;2023-05-23T01:22:53;10.93;;;8.15;;
32399;SDS011;45045;45.440;9.178;2023-05-23T01:28:27;12.75;;;8.68;;
32399;SDS011;45045;45.440;9.178;2023-05-23T01:31:05;12.50;;;8.90;;
32399;SDS011;45045;45.440;9.178;2023-05-23T01:33:34;10.15;;;8.13;;
32399;SDS011;45045;45.440;9.178;2023-05-23T01:36:02;12.77;;;8.73;;
32399;SDS011;45045;45.440;9.178;2023-05-23T01:38:28;11.18;;;8.68;;
32399;SDS011;45045;45.440;9.178;2023-05-23T01:40:54;11.73;;;8.68;;
32399;SDS011;45045;45.440;9.178;2023-05-23T01:43:20;11.95;;;8.70;;
32399;SDS011;45045;45.440;9.178;2023-05-23T01:45:47;12.98;;;9.23;;
32399;SDS011;45045;45.440;9.178;2023-05-23T01:48:13;13.23;;;9.60;;
32399;SDS011;45045;45.440;9.178;2023-05-23T01:50:41;13.38;;;9.18;;
32399;SDS011;45045;45.440;9.178;2023-05-23T01:53:11;15.68;;;8.90;;
32399;SDS011;45045;45.440;9.178;2023-05-23T01:55:40;13.07;;;9.00;;
32399;SDS011;45045;45.440;9.178;2023-05-23T01:58:06;13.48;;;9.45;;
32399;SDS011;45045;45.440;9.178;2023-05-23T02:00:33;16.77;;;9.68;;
32399;SDS011;45045;45.440;9.178;2023-05-23T02:02:59;17.58;;;10.00;;
32399;SDS011;45045;45.440;9.178;2023-05-23T02:05:24;14.85;;;9.10;;
32399;SDS011;45045;45.440;9.178;2023-05-23T02:07:51;12.52;;;8.75;;
32399;SDS011;45045;45.440;9.178;2023-05-23T02:10:17;14.77;;;9.30;;
32399;SDS011;45045;45.440;9.178;2023-05-23T02:12:43;13.10;;;9.57;;
32399;SDS011;45045;45.440;9.178;2023-05-23T02:15:09;14.93;;;9.13;;
32399;SDS011;45045;45.440;9.178;2023-05-23T02:17:35;14.50;;;9.82;;
32399;SDS011;45045;45.440;9.178;2023-05-23T02:20:02;17.73;;;10.15;;
32399;SDS011;45045;45.440;9.178;2023-05-23T02:22:30;12.93;;;9.05;;
32399;SDS011;45045;45.440;9.178;2023-05-23T02:24:56;16.80;;;9.25;;
32399;SDS011;45045;45.440;9.178;2023-05-23T02:27:21;15.98;;;9.52;;
32399;SDS011;45045;45.440;9.178;2023-05-23T02:29:47;16.20;;;9.65;;
32399;SDS011;45045;45.440;9.178;2023-05-23T02:32:13;18.33;;;9.82;;
32399;SDS011;45045;45.440;9.178;2023-05-23T02:34:39;17.15;;;10.20;;
32399;SDS011;45045;45.440;9.178;2023-05-23T02:37:06;13.10;;;9.38;;
32399;SDS011;45045;45.440;9.178;2023-05-23T02:39:34;15.57;;;10.07;;
32399;SDS011;45045;45.440;9.178;2023-05-23T02:42:00;14.20;;;8.95;;
32399;SDS011;45045;45.440;9.178;2023-05-23T02:44:28;15.68;;;9.35;;
32399;SDS011;45045;45.440;9.178;2023-05-23T02:46:54;16.48;;;10.15;;
32399;SDS011;45045;45.440;9.178;2023-05-23T02:49:20;14.68;;;9.20;;
32399;SDS011;45045;45.440;9.178;2023-05-23T02:51:45;14.65;;;8.95;;
32399;SDS011;45045;45.440;9.178;2023-05-23T02:54:11;12.32;;;9.20;;
32399;SDS011;45045;45.440;9.178;2023-05-23T02:56:37;13.73;;;10.07;;
32399;SDS011;45045;45.440;9.178;2023-05-23T02:59:03;13.63;;;9.80;;
32399;SDS011;45045;45.440;9.178;2023-05-23T03:01:28;14.88;;;9.52;;
32399;SDS011;45045;45.440;9.178;2023-05-23T03:03:54;15.63;;;9.88;;
32399;SDS011;45045;45.440;9.178;2023-05-23T03:06:20;13.43;;;9.73;;
32399;SDS011;45045;45.440;9.178;2023-05-23T03:08:46;15.48;;;10.27;;
32399;SDS011;45045;45.440;9.178;2023-05-23T03:11:12;15.27;;;10.05;;
32399;SDS011;45045;45.440;9.178;2023-05-23T03:13:38;17.45;;;9.88;;
32399;SDS011;45045;45.440;9.178;2023-05-23T03:16:04;15.30;;;10.07;;
32399;SDS011;45045;45.440;9.178;2023-05-23T03:18:30;15.88;;;10.10;;
32399;SDS011;45045;45.440;9.178;2023-05-23T03:20:56;13.27;;;10.32;;
32399;SDS011;45045;45.440;9.178;2023-05-23T03:23:21;13.48;;;10.38;;
32399;SDS011;45045;45.440;9.178;2023-05-23T03:25:47;20.00;;;10.50;;
32399;SDS011;45045;45.440;9.178;2023-05-23T03:28:13;14.02;;;9.52;;
32399;SDS011;45045;45.440;9.178;2023-05-23T03:30:39;14.00;;;9.75;;
32399;SDS011;45045;45.440;9.178;2023-05-23T03:33:05;12.63;;;10.77;;
32399;SDS011;45045;45.440;9.178;2023-05-23T03:35:33;13.48;;;9.80;;
32399;SDS011;45045;45.440;9.178;2023-05-23T03:37:59;14.75;;;10.02;;
32399;SDS011;45045;45.440;9.178;2023-05-23T03:40:25;16.85;;;10.52;;
32399;SDS011;45045;45.440;9.178;2023-05-23T03:43:00;17.55;;;10.90;;
32399;SDS011;45045;45.440;9.178;2023-05-23T03:45:30;14.40;;;9.75;;
32399;SDS011;45045;45.440;9.178;2023-05-23T03:47:57;13.18;;;9.77;;
32399;SDS011;45045;45.440;9.178;2023-05-23T03:50:23;14.48;;;10.15;;
32399;SDS011;45045;45.440;9.178;2023-05-23T03:52:49;14.95;;;10.80;;
32399;SDS011;45045;45.440;9.178;2023-05-23T03:55:15;15.07;;;10.55;;
32399;SDS011;45045;45.440;9.178;2023-05-23T03:57:41;13.15;;;10.68;;
32399;SDS011;45045;45.440;9.178;2023-05-23T04:00:07;18.25;;;10.32;;
32399;SDS011;45045;45.440;9.178;2023-05-23T04:02:36;18.58;;;11.40;;
32399;SDS011;45045;45.440;9.178;2023-05-23T04:05:04;15.90;;;11.18;;
32399;SDS011;45045;45.440;9.178;2023-05-23T04:07:31;15.68;;;10.63;;
32399;SDS011;45045;45.440;9.178;2023-05-23T04:09:59;14.43;;;10.20;;
32399;SDS011;45045;45.440;9.178;2023-05-23T04:12:25;16.27;;;10.50;;
32399;SDS011;45045;45.440;9.178;2023-05-23T04:14:51;15.23;;;10.82;;
32399;SDS011;45045;45.440;9.178;2023-05-23T04:17:17;17.80;;;10.68;;
32399;SDS011;45045;45.440;9.178;2023-05-23T04:19:43;17.35;;;11.80;;
32399;SDS011;45045;45.440;9.178;2023-05-23T04:22:09;14.13;;;11.18;;
32399;SDS011;45045;45.440;9.178;2023-05-23T04:24:35;17.85;;;11.93;;
32399;SDS011;45045;45.440;9.178;2023-05-23T04:27:01;20.30;;;12.02;;
32399;SDS011;45045;45.440;9.178;2023-05-23T04:29:26;15.13;;;11.60;;
32399;SDS011;45045;45.440;9.178;2023-05-23T04:31:55;16.42;;;11.27;;
32399;SDS011;45045;45.440;9.178;2023-05-23T04:34:21;14.43;;;11.52;;
32399;SDS011;45045;45.440;9.178;2023-05-23T04:36:47;21.70;;;12.00;;
32399;SDS011;45045;45.440;9.178;2023-05-23T04:39:13;20.50;;;12.82;;
32399;SDS011;45045;45.440;9.178;2023-05-23T04:41:40;16.95;;;12.32;;
32399;SDS011;45045;45.440;9.178;2023-05-23T04:44:06;16.73;;;11.65;;
32399;SDS011;45045;45.440;9.178;2023-05-23T04:46:34;18.90;;;12.82;;
32399;SDS011;45045;45.440;9.178;2023-05-23T04:49:00;19.35;;;12.48;;
32399;SDS011;45045;45.440;9.178;2023-05-23T04:51:28;19.67;;;11.98;;
32399;SDS011;45045;45.440;9.178;2023-05-23T04:53:53;20.65;;;15.07;;
32399;SDS011;45045;45.440;9.178;2023-05-23T04:56:19;20.13;;;12.65;;
32399;SDS011;45045;45.440;9.178;2023-05-23T04:58:46;20.23;;;12.73;;
32399;SDS011;45045;45.440;9.178;2023-05-23T05:01:12;17.27;;;13.20;;
32399;SDS011;45045;45.440;9.178;2023-05-23T05:03:38;22.20;;;13.57;;
32399;SDS011;45045;45.440;9.178;2023-05-23T05:06:04;18.60;;;13.63;;
32399;SDS011;45045;45.440;9.178;2023-05-23T05:08:31;18.45;;;13.73;;
32399;SDS011;45045;45.440;9.178;2023-05-23T05:10:57;19.45;;;13.90;;
32399;SDS011;45045;45.440;9.178;2023-05-23T05:13:22;18.55;;;14.32;;
32399;SDS011;45045;45.440;9.178;2023-05-23T05:15:48;19.10;;;14.93;;
32399;SDS011;45045;45.440;9.178;2023-05-23T05:18:14;19.67;;;14.20;;
32399;SDS011;45045;45.440;9.178;2023-05-23T05:20:40;17.42;;;14.82;;
32399;SDS011;45045;45.440;9.178;2023-05-23T05:23:06;17.80;;;15.90;;
32399;SDS011;45045;45.440;9.178;2023-05-23T05:25:33;21.77;;;15.02;;
32399;SDS011;45045;45.440;9.178;2023-05-23T05:28:00;20.65;;;14.73;;
32399;SDS011;45045;45.440;9.178;2023-05-23T05:30:30;17.25;;;15.25;;
32399;SDS011;45045;45.440;9.178;2023-05-23T05:32:59;19.98;;;15.63;;
32399;SDS011;45045;45.440;9.178;2023-05-23T05:35:26;20.83;;;16.42;;
32399;SDS011;45045;45.440;9.178;2023-05-23T05:37:53;20.73;;;16.17;;
32399;SDS011;45045;45.440;9.178;2023-05-23T05:40:19;18.08;;;15.68;;
32399;SDS011;45045;45.440;9.178;2023-05-23T05:42:44;23.75;;;17.33;;
32399;SDS011;45045;45.440;9.178;2023-05-23T05:45:10;22.63;;;16.50;;
32399;SDS011;45045;45.440;9.178;2023-05-23T05:47:36;19.08;;;16.05;;
32399;SDS011;45045;45.440;9.178;2023-05-23T05:50:03;20.08;;;15.40;;
32399;SDS011;45045;45.440;9.178;2023-05-23T05:52:34;20.75;;;15.57;;
32399;SDS011;45045;45.440;9.178;2023-05-23T05:55:07;23.67;;;16.92;;
32399;SDS011;45045;45.440;9.178;2023-05-23T05:57:35;20.67;;;16.08;;
32399;SDS011;45045;45.440;9.178;2023-05-23T06:00:05;23.38;;;16.15;;
32399;SDS011;45045;45.440;9.178;2023-05-23T06:02:43;20.98;;;16.15;;
32399;SDS011;45045;45.440;9.178;2023-05-23T06:05:13;19.58;;;16.40;;
32399;SDS011;45045;45.440;9.178;2023-05-23T06:07:41;19.48;;;15.93;;
32399;SDS011;45045;45.440;9.178;2023-05-23T06:10:08;21.00;;;15.23;;
32399;SDS011;45045;45.440;9.178;2023-05-23T06:12:37;19.77;;;14.85;;
32399;SDS011;45045;45.440;9.178;2023-05-23T06:15:03;19.80;;;15.77;;
32399;SDS011;45045;45.440;9.178;2023-05-23T06:17:30;23.77;;;14.82;;
32399;SDS011;45045;45.440;9.178;2023-05-23T06:19:56;20.10;;;15.30;;
32399;SDS011;45045;45.440;9.178;2023-05-23T06:22:21;23.77;;;14.95;;
32399;SDS011;45045;45.440;9.178;2023-05-23T06:27:19;23.08;;;16.17;;
32399;SDS011;45045;45.440;9.178;2023-05-23T06:29:44;21.52;;;15.25;;
32399;SDS011;45045;45.440;9.178;2023-05-23T06:32:10;19.80;;;15.55;;
32399;SDS011;45045;45.440;9.178;2023-05-23T06:34:36;21.42;;;15.07;;
32399;SDS011;45045;45.440;9.178;2023-05-23T06:37:02;22.02;;;15.88;;
32399;SDS011;45045;45.440;9.178;2023-05-23T06:39:28;26.10;;;15.70;;
32399;SDS011;45045;45.440;9.178;2023-05-23T06:41:54;20.55;;;14.98;;
32399;SDS011;45045;45.440;9.178;2023-05-23T06:44:20;20.33;;;15.30;;
32399;SDS011;45045;45.440;9.178;2023-05-23T06:46:46;23.23;;;15.45;;
32399;SDS011;45045;45.440;9.178;2023-05-23T06:49:12;25.42;;;16.48;;
32399;SDS011;45045;45.440;9.178;2023-05-23T06:51:38;18.48;;;16.45;;
32399;SDS011;45045;45.440;9.178;2023-05-23T06:54:04;20.40;;;17.08;;
32399;SDS011;45045;45.440;9.178;2023-05-23T06:56:30;20.27;;;16.52;;
32399;SDS011;45045;45.440;9.178;2023-05-23T06:58:56;21.63;;;16.05;;
32399;SDS011;45045;45.440;9.178;2023-05-23T07:01:22;23.02;;;17.40;;
32399;SDS011;45045;45.440;9.178;2023-05-23T07:03:48;31.35;;;16.17;;
32399;SDS011;45045;45.440;9.178;2023-05-23T07:06:14;21.08;;;16.75;;
32399;SDS011;45045;45.440;9.178;2023-05-23T07:08:40;23.75;;;15.95;;
32399;SDS011;45045;45.440;9.178;2023-05-23T07:11:06;24.92;;;16.70;;
32399;SDS011;45045;45.440;9.178;2023-05-23T07:13:31;21.05;;;16.10;;
32399;SDS011;45045;45.440;9.178;2023-05-23T07:15:57;20.08;;;15.50;;
32399;SDS011;45045;45.440;9.178;2023-05-23T07:18:23;24.38;;;15.43;;
32399;SDS011;45045;45.440;9.178;2023-05-23T07:20:49;20.95;;;15.88;;
32399;SDS011;45045;45.440;9.178;2023-05-23T07:23:15;27.70;;;15.02;;
32399;SDS011;45045;45.440;9.178;2023-05-23T07:25:41;20.15;;;15.65;;
32399;SDS011;45045;45.440;9.178;2023-05-23T07:28:08;23.90;;;15.80;;
32399;SDS011;45045;45.440;9.178;2023-05-23T07:30:34;20.95;;;15.32;;
32399;SDS011;45045;45.440;9.178;2023-05-23T07:33:00;21.73;;;14.70;;
32399;SDS011;45045;45.440;9.178;2023-05-23T07:35:26;27.80;;;15.82;;
32399;SDS011;45045;45.440;9.178;2023-05-23T07:37:52;20.65;;;15.02;;
32399;SDS011;45045;45.440;9.178;2023-05-23T07:40:18;23.38;;;13.98;;
32399;SDS011;45045;45.440;9.178;2023-05-23T07:42:44;22.13;;;14.73;;
32399;SDS011;45045;45.440;9.178;2023-05-23T07:45:10;34.67;;;14.95;;
32399;SDS011;45045;45.440;9.178;2023-05-23T07:47:36;42.67;;;16.08;;
32399;SDS011;45045;45.440;9.178;2023-05-23T07:50:02;74.00;;;17.27;;
32399;SDS011;45045;45.440;9.178;2023-05-23T07:52:29;24.17;;;13.75;;
32399;SDS011;45045;45.440;9.178;2023-05-23T07:54:56;45.17;;;16.67;;
32399;SDS011;45045;45.440;9.178;2023-05-23T07:57:24;30.17;;;14.07;;
32399;SDS011;45045;45.440;9.178;2023-05-23T07:59:50;33.47;;;15.30;;
32399;SDS011;45045;45.440;9.178;2023-05-23T08:02:17;22.70;;;14.73;;
32399;SDS011;45045;45.440;9.178;2023-05-23T08:04:43;24.73;;;14.93;;
32399;SDS011;45045;45.440;9.178;2023-05-23T08:07:10;84.28;;;18.50;;
32399;SDS011;45045;45.440;9.178;2023-05-23T08:09:39;35.58;;;15.13;;
32399;SDS011;45045;45.440;9.178;2023-05-23T08:12:05;19.75;;;14.60;;
32399;SDS011;45045;45.440;9.178;2023-05-23T08:14:31;24.33;;;14.73;;
32399;SDS011;45045;45.440;9.178;2023-05-23T08:16:57;20.42;;;14.80;;
32399;SDS011;45045;45.440;9.178;2023-05-23T08:19:23;25.52;;;14.15;;
32399;SDS011;45045;45.440;9.178;2023-05-23T08:21:49;22.80;;;14.77;;
32399;SDS011;45045;45.440;9.178;2023-05-23T08:24:15;23.23;;;14.07;;
32399;SDS011;45045;45.440;9.178;2023-05-23T08:26:41;32.05;;;14.13;;
32399;SDS011;45045;45.440;9.178;2023-05-23T08:29:06;31.13;;;14.13;;
32399;SDS011;45045;45.440;9.178;2023-05-23T08:31:34;23.98;;;13.75;;
32399;SDS011;45045;45.440;9.178;2023-05-23T08:34:00;18.48;;;12.13;;
32399;SDS011;45045;45.440;9.178;2023-05-23T08:36:26;34.65;;;14.27;;
32399;SDS011;45045;45.440;9.178;2023-05-23T08:38:51;20.83;;;13.07;;
32399;SDS011;45045;45.440;9.178;2023-05-23T08:41:19;41.63;;;14.75;;
32399;SDS011;45045;45.440;9.178;2023-05-23T08:43:46;23.17;;;14.20;;
32399;SDS011;45045;45.440;9.178;2023-05-23T08:46:12;39.20;;;14.93;;
32399;SDS011;45045;45.440;9.178;2023-05-23T08:48:39;29.25;;;13.77;;
32399;SDS011;45045;45.440;9.178;2023-05-23T08:51:08;18.80;;;12.60;;
32399;SDS011;45045;45.440;9.178;2023-05-23T08:53:37;24.20;;;13.20;;
32399;SDS011;45045;45.440;9.178;2023-05-23T08:56:08;22.27;;;13.10;;
32399;SDS011;45045;45.440;9.178;2023-05-23T08:58:35;40.60;;;14.15;;
32399;SDS011;45045;45.440;9.178;2023-05-23T09:01:02;110.20;;;22.88;;
32399;SDS011;45045;45.440;9.178;2023-05-23T09:03:28;16.23;;;12.73;;
32399;SDS011;45045;45.440;9.178;2023-05-23T09:05:54;15.55;;;12.43;;
32399;SDS011;45045;45.440;9.178;2023-05-23T09:08:21;19.05;;;11.70;;
32399;SDS011;45045;45.440;9.178;2023-05-23T09:10:51;76.45;;;18.00;;
32399;SDS011;45045;45.440;9.178;2023-05-23T09:13:17;27.85;;;11.40;;
32399;SDS011;45045;45.440;9.178;2023-05-23T09:16:03;27.17;;;13.18;;
32399;SDS011;45045;45.440;9.178;2023-05-23T09:21:03;32.03;;;11.88;;
32399;SDS011;45045;45.440;9.178;2023-05-23T09:23:33;35.80;;;12.10;;
32399;SDS011;45045;45.440;9.178;2023-05-23T09:26:03;27.52;;;11.57;;
32399;SDS011;45045;45.440;9.178;2023-05-23T09:28:30;41.50;;;13.00;;
32399;SDS011;45045;45.440;9.178;2023-05-23T09:30:58;24.42;;;10.20;;
32399;SDS011;45045;45.440;9.178;2023-05-23T09:36:07;40.28;;;12.35;;
32399;SDS011;45045;45.440;9.178;2023-05-23T09:38:36;20.33;;;11.30;;
32399;SDS011;45045;45.440;9.178;2023-05-23T09:41:03;15.93;;;9.90;;
32399;SDS011;45045;45.440;9.178;2023-05-23T09:43:29;26.67;;;12.35;;
32399;SDS011;45045;45.440;9.178;2023-05-23T09:45:59;24.83;;;11.48;;
32399;SDS011;45045;45.440;9.178;2023-05-23T09:48:31;25.15;;;9.73;;
32399;SDS011;45045;45.440;9.178;2023-05-23T09:50:57;31.23;;;10.85;;
32399;SDS011;45045;45.440;9.178;2023-05-23T09:53:23;32.90;;;12.40;;
32399;SDS011;45045;45.440;9.178;2023-05-23T09:55:52;28.60;;;18.30;;
32399;SDS011;45045;45.440;9.178;2023-05-23T09:58:19;47.83;;;16.23;;
32399;SDS011;45045;45.440;9.178;2023-05-23T10:00:51;25.70;;;11.75;;
32399;SDS011;45045;45.440;9.178;2023-05-23T10:03:23;76.63;;;18.33;;
32399;SDS011;45045;45.440;9.178;2023-05-23T10:05:56;29.33;;;11.70;;
32399;SDS011;45045;45.440;9.178;2023-05-23T10:08:49;27.77;;;11.73;;
32399;SDS011;45045;45.440;9.178;2023-05-23T10:14:04;21.13;;;10.65;;
32399;SDS011;45045;45.440;9.178;2023-05-23T10:22:07;16.02;;;11.32;;
32399;SDS011;45045;45.440;9.178;2023-05-23T10:24:36;18.23;;;10.73;;
32399;SDS011;45045;45.440;9.178;2023-05-23T10:27:03;14.73;;;10.88;;
32399;SDS011;45045;45.440;9.178;2023-05-23T10:29:30;27.33;;;11.90;;
32399;SDS011;45045;45.440;9.178;2023-05-23T10:31:57;16.00;;;10.98;;
32399;SDS011;45045;45.440;9.178;2023-05-23T10:34:28;12.45;;;10.18;;
32399;SDS011;45045;45.440;9.178;2023-05-23T10:37:21;23.65;;;10.82;;
32399;SDS011;45045;45.440;9.178;2023-05-23T10:42:23;14.95;;;11.82;;
32399;SDS011;45045;45.440;9.178;2023-05-23T10:45:17;13.00;;;10.73;;
32399;SDS011;45045;45.440;9.178;2023-05-23T10:47:48;15.85;;;11.38;;
32399;SDS011;45045;45.440;9.178;2023-05-23T10:50:16;13.70;;;10.10;;
32399;SDS011;45045;45.440;9.178;2023-05-23T10:52:59;12.48;;;10.20;;
32399;SDS011;45045;45.440;9.178;2023-05-23T10:55:30;15.55;;;11.80;;
32399;SDS011;45045;45.440;9.178;2023-05-23T10:58:17;15.30;;;10.45;;
32399;SDS011;45045;45.440;9.178;2023-05-23T11:00:59;12.23;;;9.75;;
32399;SDS011;45045;45.440;9.178;2023-05-23T11:03:30;12.35;;;9.70;;
32399;SDS011;45045;45.440;9.178;2023-05-23T11:05:59;13.23;;;11.15;;
32399;SDS011;45045;45.440;9.178;2023-05-23T11:08:26;13.55;;;10.50;;
32399;SDS011;45045;45.440;9.178;2023-05-23T11:11:00;13.23;;;9.35;;
32399;SDS011;45045;45.440;9.178;2023-05-23T11:14:12;14.70;;;10.30;;
32399;SDS011;45045;45.440;9.178;2023-05-23T11:16:22;10.85;;;8.02;;
32399;SDS011;45045;45.440;9.178;2023-05-23T11:21:43;16.20;;;8.13;;
32399;SDS011;45045;45.440;9.178;2023-05-23T11:24:10;11.32;;;7.40;;
32399;SDS011;45045;45.440;9.178;2023-05-23T11:26:36;14.15;;;8.00;;
32399;SDS011;45045;45.440;9.178;2023-05-23T11:29:03;11.05;;;8.43;;
32399;SDS011;45045;45.440;9.178;2023-05-23T11:31:36;15.30;;;8.93;;
32399;SDS011;45045;45.440;9.178;2023-05-23T11:34:02;24.00;;;18.13;;
32399;SDS011;45045;45.440;9.178;2023-05-23T11:36:29;25.83;;;11.05;;
32399;SDS011;45045;45.440;9.178;2023-05-23T11:38:55;28.67;;;9.77;;
32399;SDS011;45045;45.440;9.178;2023-05-23T11:41:26;36.95;;;11.30;;
32399;SDS011;45045;45.440;9.178;2023-05-23T11:43:52;18.83;;;9.80;;
32399;SDS011;45045;45.440;9.178;2023-05-23T11:46:18;34.47;;;12.32;;
32399;SDS011;45045;45.440;9.178;2023-05-23T11:48:45;45.17;;;12.27;;
32399;SDS011;45045;45.440;9.178;2023-05-23T11:51:12;13.77;;;11.00;;
32399;SDS011;45045;45.440;9.178;2023-05-23T11:53:38;35.47;;;14.02;;
32399;SDS011;45045;45.440;9.178;2023-05-23T11:56:04;16.38;;;11.20;;
32399;SDS011;45045;45.440;9.178;2023-05-23T11:58:33;25.20;;;13.07;;
32399;SDS011;45045;45.440;9.178;2023-05-23T12:01:04;22.70;;;13.05;;
32399;SDS011;45045;45.440;9.178;2023-05-23T12:03:32;21.80;;;12.30;;
32399;SDS011;45045;45.440;9.178;2023-05-23T12:05:59;17.13;;;10.63;;
32399;SDS011;45045;45.440;9.178;2023-05-23T12:08:28;15.35;;;9.15;;
32399;SDS011;45045;45.440;9.178;2023-05-23T12:10:57;14.95;;;10.30;;
32399;SDS011;45045;45.440;9.178;2023-05-23T12:13:24;25.25;;;11.20;;
32399;SDS011;45045;45.440;9.178;2023-05-23T12:15:54;13.73;;;9.10;;
32399;SDS011;45045;45.440;9.178;2023-05-23T12:18:21;12.05;;;8.88;;
32399;SDS011;45045;45.440;9.178;2023-05-23T12:20:48;12.23;;;9.13;;
32399;SDS011;45045;45.440;9.178;2023-05-23T12:23:19;13.82;;;7.68;;
32399;SDS011;45045;45.440;9.178;2023-05-23T12:25:48;9.27;;;7.43;;
32399;SDS011;45045;45.440;9.178;2023-05-23T12:28:17;15.32;;;7.43;;
32399;SDS011;45045;45.440;9.178;2023-05-23T12:30:44;13.30;;;8.02;;
32399;SDS011;45045;45.440;9.178;2023-05-23T12:33:10;11.70;;;7.07;;
32399;SDS011;45045;45.440;9.178;2023-05-23T12:35:36;13.88;;;7.28;;
32399;SDS011;45045;45.440;9.178;2023-05-23T12:38:04;9.30;;;6.28;;
32399;SDS011;45045;45.440;9.178;2023-05-23T12:40:34;12.80;;;8.10;;
32399;SDS011;45045;45.440;9.178;2023-05-23T12:43:00;24.33;;;8.02;;
32399;SDS011;45045;45.440;9.178;2023-05-23T12:45:35;17.85;;;7.28;;
32399;SDS011;45045;45.440;9.178;2023-05-23T12:48:01;26.98;;;9.15;;
32399;SDS011;45045;45.440;9.178;2023-05-23T12:50:28;24.42;;;7.78;;
32399;SDS011;45045;45.440;9.178;2023-05-23T12:52:54;22.73;;;8.20;;
32399;SDS011;45045;45.440;9.178;2023-05-23T12:55:21;16.40;;;6.68;;
32399;SDS011;45045;45.440;9.178;2023-05-23T12:57:46;28.17;;;7.88;;
32399;SDS011;45045;45.440;9.178;2023-05-23T13:00:12;11.48;;;5.70;;
32399;SDS011;45045;45.440;9.178;2023-05-23T13:02:39;10.18;;;4.68;;
32399;SDS011;45045;45.440;9.178;2023-05-23T13:05:05;12.50;;;5.85;;
32399;SDS011;45045;45.440;9.178;2023-05-23T13:07:31;18.88;;;6.28;;
32399;SDS011;45045;45.440;9.178;2023-05-23T13:09:57;43.40;;;8.60;;
32399;SDS011;45045;45.440;9.178;2023-05-23T13:12:23;10.25;;;5.40;;
32399;SDS011;45045;45.440;9.178;2023-05-23T13:14:49;16.30;;;5.70;;
32399;SDS011;45045;45.440;9.178;2023-05-23T13:17:16;13.60;;;5.75;;
32399;SDS011;45045;45.440;9.178;2023-05-23T13:19:42;8.18;;;4.88;;
32399;SDS011;45045;45.440;9.178;2023-05-23T13:22:08;13.10;;;5.20;;
32399;SDS011;45045;45.440;9.178;2023-05-23T13:24:37;14.30;;;5.80;;
32399;SDS011;45045;45.440;9.178;2023-05-23T13:27:04;11.23;;;5.55;;
32399;SDS011;45045;45.440;9.178;2023-05-23T13:29:31;15.57;;;5.45;;
32399;SDS011;45045;45.440;9.178;2023-05-23T13:31:57;8.07;;;4.38;;
32399;SDS011;45045;45.440;9.178;2023-05-23T13:34:23;10.05;;;4.47;;
32399;SDS011;45045;45.440;9.178;2023-05-23T13:36:49;16.00;;;5.60;;
32399;SDS011;45045;45.440;9.178;2023-05-23T13:39:15;9.70;;;5.25;;
32399;SDS011;45045;45.440;9.178;2023-05-23T13:41:41;6.97;;;4.85;;
32399;SDS011;45045;45.440;9.178;2023-05-23T13:44:07;14.70;;;5.10;;
32399;SDS011;45045;45.440;9.178;2023-05-23T13:46:32;9.52;;;4.80;;
32399;SDS011;45045;45.440;9.178;2023-05-23T13:48:58;6.97;;;4.35;;
32399;SDS011;45045;45.440;9.178;2023-05-23T13:51:24;12.85;;;4.60;;
32399;SDS011;45045;45.440;9.178;2023-05-23T13:53:50;14.00;;;6.80;;
32399;SDS011;45045;45.440;9.178;2023-05-23T13:56:16;8.73;;;4.85;;
32399;SDS011;45045;45.440;9.178;2023-05-23T13:58:42;9.15;;;4.57;;
32399;SDS011;45045;45.440;9.178;2023-05-23T14:01:10;8.20;;;4.85;;
32399;SDS011;45045;45.440;9.178;2023-05-23T14:03:37;7.78;;;4.28;;
32399;SDS011;45045;45.440;9.178;2023-05-23T14:06:03;8.88;;;4.20;;
32399;SDS011;45045;45.440;9.178;2023-05-23T14:08:29;9.32;;;4.78;;
32399;SDS011;45045;45.440;9.178;2023-05-23T14:10:55;9.25;;;4.38;;
32399;SDS011;45045;45.440;9.178;2023-05-23T14:13:21;9.60;;;4.50;;
32399;SDS011;45045;45.440;9.178;2023-05-23T14:15:48;16.67;;;5.00;;
32399;SDS011;45045;45.440;9.178;2023-05-23T14:18:18;12.45;;;4.38;;
32399;SDS011;45045;45.440;9.178;2023-05-23T14:20:44;18.17;;;6.70;;
32399;SDS011;45045;45.440;9.178;2023-05-23T14:23:09;8.50;;;4.72;;
32399;SDS011;45045;45.440;9.178;2023-05-23T14:25:35;10.77;;;4.78;;
32399;SDS011;45045;45.440;9.178;2023-05-23T14:28:01;10.07;;;4.32;;
32399;SDS011;45045;45.440;9.178;2023-05-23T14:30:27;10.75;;;4.78;;
32399;SDS011;45045;45.440;9.178;2023-05-23T14:32:53;8.30;;;4.70;;
32399;SDS011;45045;45.440;9.178;2023-05-23T14:35:19;9.25;;;4.53;;
32399;SDS011;45045;45.440;9.178;2023-05-23T14:37:46;16.75;;;6.38;;
32399;SDS011;45045;45.440;9.178;2023-05-23T14:40:12;39.25;;;8.02;;
32399;SDS011;45045;45.440;9.178;2023-05-23T14:42:40;13.60;;;4.72;;
32399;SDS011;45045;45.440;9.178;2023-05-23T14:45:06;11.90;;;5.63;;
32399;SDS011;45045;45.440;9.178;2023-05-23T14:47:32;8.75;;;4.72;;
32399;SDS011;45045;45.440;9.178;2023-05-23T14:49:59;19.38;;;5.57;;
32399;SDS011;45045;45.440;9.178;2023-05-23T14:52:25;10.68;;;5.13;;
32399;SDS011;45045;45.440;9.178;2023-05-23T14:54:51;14.07;;;4.50;;
32399;SDS011;45045;45.440;9.178;2023-05-23T14:57:17;7.80;;;4.28;;
32399;SDS011;45045;45.440;9.178;2023-05-23T14:59:42;5.68;;;3.90;;